Time;durP1;ratioP1;P1;durP2;ratioP2;P2;SDS_P1;SDS_P2;PMS_P1;PMS_P2;Temp;Humidity;BMP_temperature;BMP_pressure;BME280_temperature;BME280_humidity;BME280_pressure;Samples;Min_cycle;Max_cycle;Signal;HPM_P1;HPM_P2
2021/06/26 00:01:56;;;;;;;14.67;13.17;;;16.00;99.90;;;;;;5049672;28;20613;-81
2021/06/26 00:04:24;;;;;;;12.53;11.13;;;16.10;99.90;;;;;;5049597;28;21151;-81
2021/06/26 00:06:53;;;;;;;12.73;11.53;;;16.10;99.90;;;;;;5050156;28;20635;-81
2021/06/26 00:09:21;;;;;;;15.57;13.30;;;16.00;99.90;;;;;;5051630;28;20622;-81
2021/06/26 00:11:50;;;;;;;13.93;12.40;;;15.90;99.90;;;;;;5054028;28;20630;-80
2021/06/26 00:14:17;;;;;;;13.63;12.10;;;15.90;99.90;;;;;;5052875;28;20623;-80
2021/06/26 00:16:44;;;;;;;11.60;10.60;;;15.80;99.90;;;;;;5053698;28;20711;-80
2021/06/26 00:19:11;;;;;;;13.57;12.10;;;15.90;99.90;;;;;;5053942;28;21174;-80
2021/06/26 00:21:38;;;;;;;13.53;11.93;;;15.90;99.90;;;;;;5053616;28;20610;-80
2021/06/26 00:24:07;;;;;;;15.07;13.47;;;15.80;99.90;;;;;;5053442;28;20619;-80
2021/06/26 00:26:34;;;;;;;12.90;11.67;;;15.80;99.90;;;;;;5067747;28;21117;-81
2021/06/26 00:29:02;;;;;;;12.83;11.57;;;15.80;99.90;;;;;;5073465;28;20615;-81
2021/06/26 00:31:29;;;;;;;14.77;12.30;;;15.80;99.90;;;;;;5073199;28;20755;-81
2021/06/26 00:33:56;;;;;;;14.03;11.87;;;15.80;99.90;;;;;;5073230;28;20622;-81
2021/06/26 00:36:23;;;;;;;16.37;11.60;;;15.90;99.90;;;;;;5072945;28;20618;-81
2021/06/26 00:38:50;;;;;;;13.33;12.03;;;15.90;99.90;;;;;;5073540;28;20950;-81
2021/06/26 00:41:18;;;;;;;14.97;13.37;;;16.00;99.90;;;;;;5072858;28;20622;-81
2021/06/26 00:43:45;;;;;;;14.47;13.07;;;16.00;99.90;;;;;;5067756;28;20612;-81
2021/06/26 00:46:12;;;;;;;15.80;12.83;;;16.00;99.90;;;;;;5053361;28;20623;-81
2021/06/26 00:48:39;;;;;;;14.77;13.07;;;16.00;99.90;;;;;;5053460;28;21016;-81
2021/06/26 00:51:06;;;;;;;14.47;13.00;;;15.90;99.90;;;;;;5052992;28;20685;-81
2021/06/26 00:53:33;;;;;;;15.87;12.23;;;16.00;99.90;;;;;;5053007;28;20652;-81
2021/06/26 00:56:02;;;;;;;14.47;12.20;;;15.90;99.90;;;;;;5052060;28;20665;-81
2021/06/26 00:58:31;;;;;;;16.47;12.80;;;15.80;99.90;;;;;;5052878;28;20706;-81
2021/06/26 01:00:58;;;;;;;20.07;13.73;;;15.70;99.90;;;;;;5066618;28;20635;-81
2021/06/26 01:03:26;;;;;;;17.37;13.33;;;15.90;99.90;;;;;;5072151;28;20619;-81
2021/06/26 01:05:54;;;;;;;14.63;13.13;;;15.90;99.90;;;;;;5071029;28;20625;-81
2021/06/26 01:08:25;;;;;;;14.50;13.10;;;15.90;99.90;;;;;;5071947;28;21005;-81
2021/06/26 01:10:58;;;;;;;16.23;14.50;;;15.80;99.90;;;;;;5073087;28;20750;-81
2021/06/26 01:13:28;;;;;;;14.10;12.60;;;15.80;99.90;;;;;;5073041;28;20625;-81
2021/06/26 01:15:57;;;;;;;14.90;13.40;;;15.70;99.90;;;;;;5072361;28;20630;-81
2021/06/26 01:18:25;;;;;;;14.90;13.10;;;15.70;99.90;;;;;;5072638;28;20620;-81
2021/06/26 01:20:53;;;;;;;16.13;12.80;;;15.70;99.90;;;;;;5071517;28;20621;-81
2021/06/26 01:23:25;;;;;;;15.80;13.10;;;15.70;99.90;;;;;;5072702;28;20625;-81
2021/06/26 01:25:54;;;;;;;13.60;12.20;;;15.70;99.90;;;;;;5062828;28;20721;-81
2021/06/26 01:28:23;;;;;;;16.00;12.20;;;15.70;99.90;;;;;;5052663;28;21257;-81
2021/06/26 01:30:51;;;;;;;13.97;12.27;;;15.70;99.90;;;;;;5052304;28;20722;-81
2021/06/26 01:33:19;;;;;;;15.20;13.70;;;15.70;99.90;;;;;;5050994;28;20742;-81
2021/06/26 01:35:48;;;;;;;12.83;11.50;;;15.70;99.90;;;;;;5052115;28;20635;-81
2021/06/26 01:38:16;;;;;;;14.93;13.50;;;15.70;99.90;;;;;;5052465;28;21516;-81
2021/06/26 01:40:45;;;;;;;14.30;12.80;;;15.70;99.90;;;;;;5052204;28;20640;-81
2021/06/26 01:43:14;;;;;;;13.10;11.77;;;15.70;99.90;;;;;;5052325;28;20676;-81
2021/06/26 01:45:47;;;;;;;16.37;14.67;;;15.70;99.90;;;;;;5051645;28;20623;-81
2021/06/26 01:48:17;;;;;;;14.77;13.27;;;15.70;99.90;;;;;;5051951;28;20627;-81
2021/06/26 01:50:48;;;;;;;14.37;12.83;;;15.70;99.90;;;;;;5052177;28;20708;-81
2021/06/26 01:53:18;;;;;;;14.50;13.10;;;15.70;99.90;;;;;;5052119;28;20622;-80
2021/06/26 01:55:47;;;;;;;16.43;13.40;;;15.80;99.90;;;;;;5051371;28;21314;-81
2021/06/26 01:58:14;;;;;;;13.30;11.97;;;15.80;99.90;;;;;;5051901;28;20717;-81
2021/06/26 02:00:42;;;;;;;18.03;14.20;;;15.80;99.90;;;;;;5051474;28;20626;-81
2021/06/26 02:03:10;;;;;;;16.23;14.10;;;15.90;99.90;;;;;;5062781;28;20633;-81
2021/06/26 02:05:38;;;;;;;15.40;13.80;;;15.90;99.90;;;;;;5057678;28;20721;-81
2021/06/26 02:08:06;;;;;;;15.07;13.53;;;15.90;99.90;;;;;;5060912;28;20668;-81
2021/06/26 02:10:36;;;;;;;15.43;13.60;;;15.80;99.90;;;;;;5067711;28;20707;-81
2021/06/26 02:13:06;;;;;;;16.67;14.33;;;15.80;99.90;;;;;;5051164;28;21027;-81
2021/06/26 02:15:34;;;;;;;14.87;13.37;;;15.80;99.90;;;;;;5057015;28;20679;-81
2021/06/26 02:18:02;;;;;;;16.20;13.53;;;15.80;99.90;;;;;;5071585;28;20621;-81
2021/06/26 02:20:30;;;;;;;17.60;14.03;;;15.80;99.90;;;;;;5071544;28;20621;-81
2021/06/26 02:22:58;;;;;;;19.63;13.57;;;15.80;99.90;;;;;;5071364;28;20625;-80
2021/06/26 02:25:28;;;;;;;16.47;13.57;;;15.80;99.90;;;;;;5052956;28;20757;-81
2021/06/26 02:27:56;;;;;;;16.73;14.60;;;15.90;99.90;;;;;;5051676;28;20681;-80
2021/06/26 02:30:26;;;;;;;15.27;13.47;;;16.00;99.90;;;;;;5051098;28;20637;-80
2021/06/26 02:32:54;;;;;;;16.17;14.47;;;16.00;99.90;;;;;;5049085;28;20625;-81
2021/06/26 02:35:21;;;;;;;16.57;13.80;;;16.00;99.90;;;;;;5050694;28;20622;-81
2021/06/26 02:37:49;;;;;;;17.30;15.07;;;16.00;99.90;;;;;;5051096;28;20622;-81
2021/06/26 02:40:16;;;;;;;15.27;13.10;;;16.10;99.90;;;;;;5050711;28;20666;-81
2021/06/26 02:42:43;;;;;;;15.70;13.30;;;16.00;99.90;;;;;;5069811;28;20987;-81
2021/06/26 02:45:11;;;;;;;14.93;13.43;;;16.00;99.90;;;;;;5070344;28;20612;-81
2021/06/26 02:47:39;;;;;;;15.27;13.33;;;15.90;99.90;;;;;;5070826;28;20622;-81
2021/06/26 02:50:08;;;;;;;14.47;13.03;;;16.00;99.90;;;;;;5070706;28;20623;-80
2021/06/26 02:52:35;;;;;;;15.47;13.87;;;15.90;99.90;;;;;;5070328;28;20623;-80
2021/06/26 02:55:02;;;;;;;15.73;12.97;;;15.90;99.90;;;;;;5070177;28;20618;-80
2021/06/26 02:57:29;;;;;;;15.40;13.63;;;15.90;99.90;;;;;;5070364;28;21216;-81
2021/06/26 02:59:56;;;;;;;16.93;12.97;;;15.80;99.90;;;;;;5070892;28;20606;-81
2021/06/26 03:02:25;;;;;;;15.60;13.40;;;15.80;99.90;;;;;;5070619;28;20615;-81
2021/06/26 03:04:54;;;;;;;18.40;15.27;;;15.70;99.90;;;;;;5069881;28;20626;-81
2021/06/26 03:07:22;;;;;;;16.17;14.17;;;15.60;99.90;;;;;;5070829;28;20622;-80
2021/06/26 03:09:49;;;;;;;15.13;13.60;;;15.50;99.90;;;;;;5070434;28;21319;-81
2021/06/26 03:12:16;;;;;;;16.90;15.20;;;15.40;99.90;;;;;;5070460;28;20714;-81
2021/06/26 03:14:43;;;;;;;15.00;13.50;;;15.30;99.90;;;;;;5068709;28;20732;-81
2021/06/26 03:17:11;;;;;;;17.90;14.37;;;15.20;99.90;;;;;;5050323;28;20626;-81
2021/06/26 03:19:38;;;;;;;19.13;14.13;;;15.10;99.90;;;;;;5050000;28;20992;-81
2021/06/26 03:22:07;;;;;;;17.13;14.97;;;15.00;99.90;;;;;;5050588;28;20618;-81
2021/06/26 03:24:34;;;;;;;19.10;14.33;;;15.10;99.90;;;;;;5050007;28;21682;-81
2021/06/26 03:27:01;;;;;;;17.93;15.47;;;15.20;99.90;;;;;;5050349;28;20630;-81
2021/06/26 03:29:30;;;;;;;18.17;15.97;;;15.30;99.90;;;;;;5050416;28;20629;-81
2021/06/26 03:31:59;;;;;;;19.67;14.80;;;15.20;99.90;;;;;;5048972;28;20650;-81
2021/06/26 03:34:27;;;;;;;15.63;14.03;;;15.20;99.90;;;;;;5049573;28;20611;-81
2021/06/26 03:36:54;;;;;;;18.10;15.43;;;15.20;99.90;;;;;;5050221;28;20622;-81
2021/06/26 03:39:24;;;;;;;17.40;15.60;;;15.20;99.90;;;;;;5050245;28;20625;-81
2021/06/26 03:41:53;;;;;;;16.23;14.53;;;15.10;99.90;;;;;;5049995;28;20618;-81
2021/06/26 03:44:21;;;;;;;16.97;14.77;;;15.10;99.90;;;;;;5049239;28;20630;-81
2021/06/26 03:46:49;;;;;;;16.07;14.20;;;15.10;99.90;;;;;;5049397;28;20618;-81
2021/06/26 03:49:17;;;;;;;18.40;15.50;;;15.00;99.90;;;;;;5049857;28;21277;-81
2021/06/26 03:51:44;;;;;;;17.43;14.93;;;14.90;99.90;;;;;;5050067;28;20693;-81
2021/06/26 03:54:12;;;;;;;15.80;14.07;;;14.80;99.90;;;;;;5049808;28;20611;-81
2021/06/26 03:56:41;;;;;;;16.70;14.87;;;14.70;99.90;;;;;;5049547;28;20623;-81
2021/06/26 03:59:09;;;;;;;19.10;16.43;;;14.70;99.90;;;;;;5049535;28;20623;-81
2021/06/26 04:01:36;;;;;;;17.47;13.97;;;14.60;99.90;;;;;;5050031;28;20785;-81
2021/06/26 04:04:04;;;;;;;15.10;13.47;;;14.60;99.90;;;;;;5050064;28;21179;-81
2021/06/26 04:06:32;;;;;;;16.90;15.17;;;14.70;99.90;;;;;;5049683;28;20991;-81
2021/06/26 04:09:00;;;;;;;17.67;15.67;;;14.70;99.90;;;;;;5050125;28;20619;-81
2021/06/26 04:11:28;;;;;;;18.03;15.10;;;14.70;99.90;;;;;;5049792;28;20634;-81
2021/06/26 04:13:56;;;;;;;19.43;15.07;;;14.90;99.90;;;;;;5049576;28;20676;-81
2021/06/26 04:16:24;;;;;;;16.37;13.30;;;15.10;99.90;;;;;;5064274;28;20622;-81
2021/06/26 04:18:51;;;;;;;16.47;14.20;;;15.20;99.90;;;;;;5069848;28;20601;-81
2021/06/26 04:21:18;;;;;;;17.17;15.33;;;15.30;99.90;;;;;;5069760;28;20975;-82
2021/06/26 04:23:45;;;;;;;18.20;15.97;;;15.50;99.90;;;;;;5069768;28;20610;-81
2021/06/26 04:26:12;;;;;;;18.47;14.93;;;15.60;99.90;;;;;;5069096;28;20625;-81
2021/06/26 04:28:39;;;;;;;17.27;15.20;;;15.60;99.90;;;;;;5069440;28;20617;-81
2021/06/26 04:31:07;;;;;;;18.07;14.73;;;15.60;99.90;;;;;;5069769;28;20654;-82
2021/06/26 04:33:34;;;;;;;16.90;15.20;;;15.60;99.90;;;;;;5068345;28;20620;-81
2021/06/26 04:36:01;;;;;;;16.37;14.43;;;15.70;99.90;;;;;;5068724;28;20614;-81
2021/06/26 04:38:28;;;;;;;17.13;14.33;;;15.80;99.90;;;;;;5069796;28;20606;-81
2021/06/26 04:40:55;;;;;;;18.13;16.23;;;15.80;99.90;;;;;;5069012;28;20625;-82
2021/06/26 04:43:22;;;;;;;19.63;15.67;;;15.90;99.90;;;;;;5069549;28;20717;-81
2021/06/26 04:45:49;;;;;;;17.97;15.50;;;16.00;99.90;;;;;;5069076;28;20618;-81
2021/06/26 04:48:20;;;;;;;16.83;14.97;;;16.00;99.90;;;;;;5069777;28;20640;-81
2021/06/26 04:50:47;;;;;;;16.13;14.43;;;16.10;99.90;;;;;;5069484;28;20608;-81
2021/06/26 04:53:14;;;;;;;17.40;15.50;;;16.20;99.90;;;;;;5069526;28;21501;-81
2021/06/26 04:55:41;;;;;;;16.27;14.53;;;16.20;99.90;;;;;;5069308;28;20626;-82
2021/06/26 04:58:08;;;;;;;18.73;15.90;;;16.30;99.90;;;;;;5073110;28;20683;-81
2021/06/26 05:00:35;;;;;;;17.63;14.80;;;16.30;99.90;;;;;;5072930;28;20675;-81
2021/06/26 05:03:02;;;;;;;20.90;14.53;;;16.40;99.90;;;;;;5073101;28;21045;-82
2021/06/26 05:05:30;;;;;;;21.00;15.03;;;16.40;99.90;;;;;;5072391;28;20687;-82
2021/06/26 05:07:57;;;;;;;19.73;14.60;;;16.30;99.90;;;;;;5072634;28;20607;-82
2021/06/26 05:10:24;;;;;;;18.27;15.80;;;16.30;99.90;;;;;;5073183;28;20678;-82
2021/06/26 05:12:51;;;;;;;19.93;17.30;;;16.40;99.90;;;;;;5073028;28;20724;-83
2021/06/26 05:15:17;;;;;;;18.60;15.50;;;16.60;99.90;;;;;;5066060;28;20625;-82
2021/06/26 05:17:44;;;;;;;18.67;15.37;;;16.60;99.90;;;;;;5052721;28;21145;-82
2021/06/26 05:20:16;;;;;;;17.63;14.73;;;16.60;99.90;;;;;;5052697;28;20614;-82
2021/06/26 05:22:44;;;;;;;18.47;16.07;;;16.70;99.90;;;;;;5051992;28;21111;-81
2021/06/26 05:25:12;;;;;;;17.30;15.23;;;16.60;99.90;;;;;;5052389;28;20663;-81
2021/06/26 05:27:39;;;;;;;19.70;15.10;;;16.70;99.90;;;;;;5052560;28;20613;-81
2021/06/26 05:30:07;;;;;;;16.73;14.53;;;16.70;99.90;;;;;;5052427;28;20622;-81
2021/06/26 05:32:34;;;;;;;17.17;15.33;;;16.80;99.90;;;;;;5051158;28;21357;-81
2021/06/26 05:35:01;;;;;;;19.67;16.97;;;16.80;99.90;;;;;;5051624;28;20624;-81
2021/06/26 05:37:28;;;;;;;20.67;15.60;;;16.90;99.90;;;;;;5052400;28;20678;-81
2021/06/26 05:39:56;;;;;;;17.33;15.50;;;17.00;99.90;;;;;;5052251;28;20643;-81
2021/06/26 05:42:23;;;;;;;18.37;16.37;;;17.10;99.90;;;;;;5052376;28;20678;-81
2021/06/26 05:44:50;;;;;;;19.07;15.40;;;17.10;99.90;;;;;;5051664;28;20736;-82
2021/06/26 05:47:17;;;;;;;19.90;16.53;;;17.10;99.90;;;;;;5052196;28;20686;-82
2021/06/26 05:49:44;;;;;;;17.63;15.83;;;17.30;99.90;;;;;;5052078;28;20688;-81
2021/06/26 05:52:11;;;;;;;19.00;16.53;;;17.40;99.90;;;;;;5051988;28;21301;-81
2021/06/26 05:54:38;;;;;;;19.33;16.67;;;17.50;99.90;;;;;;5052049;28;21145;-81
2021/06/26 05:57:07;;;;;;;17.27;15.47;;;17.50;99.90;;;;;;5052199;28;20624;-81
2021/06/26 05:59:34;;;;;;;19.70;17.70;;;17.50;99.90;;;;;;5052062;28;20618;-81
2021/06/26 06:02:01;;;;;;;23.83;17.57;;;17.50;99.90;;;;;;5051820;28;20625;-82
2021/06/26 06:04:28;;;;;;;21.23;17.60;;;17.50;99.90;;;;;;5051072;28;20621;-82
2021/06/26 06:06:55;;;;;;;19.27;16.23;;;17.50;99.90;;;;;;5051868;28;20617;-81
2021/06/26 06:09:22;;;;;;;20.60;16.07;;;17.70;99.90;;;;;;5051984;28;20621;-81
2021/06/26 06:11:49;;;;;;;17.67;15.87;;;17.90;99.90;;;;;;5051691;28;20689;-81
2021/06/26 06:14:17;;;;;;;19.73;16.60;;;17.90;99.90;;;;;;5051602;28;20622;-81
2021/06/26 06:16:44;;;;;;;19.00;16.93;;;17.90;99.90;;;;;;5068678;28;20710;-81
2021/06/26 06:19:11;;;;;;;20.00;16.33;;;18.00;99.90;;;;;;5071762;28;20656;-81
2021/06/26 06:21:37;;;;;;;24.20;16.87;;;18.10;99.90;;;;;;5071480;28;20633;-81
2021/06/26 06:24:05;;;;;;;18.40;16.50;;;18.20;99.90;;;;;;5071236;28;20728;-81
2021/06/26 06:26:32;;;;;;;18.97;16.77;;;18.10;99.90;;;;;;5064606;28;20707;-82
2021/06/26 06:28:59;;;;;;;18.90;16.90;;;18.20;99.90;;;;;;5057642;28;20662;-82
2021/06/26 06:31:27;;;;;;;21.13;17.13;;;18.10;99.90;;;;;;5064764;28;20629;-81
2021/06/26 06:33:54;;;;;;;17.67;15.77;;;18.30;99.90;;;;;;5059590;28;21221;-83
2021/06/26 06:36:21;;;;;;;17.90;16.13;;;18.50;99.90;;;;;;5068192;28;20628;-83
2021/06/26 06:38:48;;;;;;;17.60;15.73;;;18.70;99.90;;;;;;5070849;28;20649;-83
2021/06/26 06:41:18;;;;;;;18.13;15.20;;;18.80;99.90;;;;;;5070673;28;20629;-83
2021/06/26 06:43:45;;;;;;;16.73;14.87;;;18.90;99.90;;;;;;5070197;28;20612;-83
2021/06/26 06:46:13;;;;;;;17.00;15.23;;;19.00;99.90;;;;;;5070090;28;20653;-82
2021/06/26 06:48:41;;;;;;;21.20;18.23;;;19.00;99.90;;;;;;5070849;28;20613;-83
2021/06/26 06:51:08;;;;;;;15.77;14.20;;;19.00;99.90;;;;;;5071008;28;21186;-83
2021/06/26 06:53:35;;;;;;;18.80;16.63;;;19.10;99.90;;;;;;5070894;28;20660;-82
2021/06/26 06:56:02;;;;;;;17.30;15.50;;;19.00;99.90;;;;;;5070370;28;20616;-83
2021/06/26 06:58:29;;;;;;;17.43;15.57;;;19.00;99.90;;;;;;5070173;28;20666;-83
2021/06/26 07:00:56;;;;;;;19.57;17.57;;;19.10;99.90;;;;;;5070794;28;20712;-83
2021/06/26 07:03:23;;;;;;;16.70;14.90;;;19.20;99.90;;;;;;5070526;28;21284;-83
2021/06/26 07:05:51;;;;;;;20.20;17.27;;;19.30;99.90;;;;;;5052712;28;20622;-83
2021/06/26 07:08:18;;;;;;;17.73;15.90;;;19.30;99.90;;;;;;5066473;28;20625;-83
2021/06/26 07:10:45;;;;;;;15.40;13.80;;;19.30;99.90;;;;;;5054040;28;21163;-84
2021/06/26 07:13:12;;;;;;;15.47;13.87;;;19.30;99.90;;;;;;5060005;28;20653;-83
2021/06/26 07:15:40;;;;;;;15.90;14.33;;;19.40;99.90;;;;;;5061182;28;20626;-82
2021/06/26 07:18:06;;;;;;;15.80;14.10;;;19.50;99.90;;;;;;5058992;28;20616;-83
2021/06/26 07:20:33;;;;;;;19.70;14.57;;;19.40;99.90;;;;;;5059646;28;20633;-82
2021/06/26 07:23:02;;;;;;;16.10;14.40;;;19.10;99.90;;;;;;5060878;28;20638;-83
2021/06/26 07:25:29;;;;;;;18.10;14.93;;;19.00;99.90;;;;;;5059311;28;20609;-83
2021/06/26 07:27:56;;;;;;;16.13;14.53;;;19.20;99.90;;;;;;5060460;28;20658;-83
2021/06/26 07:30:23;;;;;;;18.03;16.23;;;19.30;99.90;;;;;;5067237;28;20621;-83
2021/06/26 07:32:50;;;;;;;17.00;15.30;;;19.50;99.90;;;;;;5057762;28;20662;-83
2021/06/26 07:35:17;;;;;;;17.40;15.70;;;19.80;99.90;;;;;;5057980;28;21175;-84
2021/06/26 07:37:44;;;;;;;16.13;14.50;;;19.90;99.90;;;;;;5050989;28;20657;-83
2021/06/26 07:40:14;;;;;;;13.73;12.17;;;20.10;99.90;;;;;;5049450;28;21164;-83
2021/06/26 07:42:42;;;;;;;14.13;12.63;;;20.20;99.90;;;;;;5050147;28;20987;-82
2021/06/26 07:45:10;;;;;;;15.00;13.47;;;20.20;99.90;;;;;;5049597;28;21191;-83
2021/06/26 07:47:37;;;;;;;13.67;12.37;;;20.30;99.90;;;;;;5049888;28;21149;-83
2021/06/26 07:50:06;;;;;;;14.53;13.13;;;20.20;99.90;;;;;;5050161;28;20985;-83
2021/06/26 07:52:33;;;;;;;15.00;13.50;;;20.40;99.90;;;;;;5049816;28;20646;-82
2021/06/26 07:55:01;;;;;;;15.20;11.60;;;20.60;99.90;;;;;;5049540;28;20617;-82
2021/06/26 07:57:30;;;;;;;13.10;11.90;;;20.50;99.90;;;;;;5050039;28;20620;-83
2021/06/26 07:59:57;;;;;;;12.90;11.60;;;20.50;99.90;;;;;;5050908;28;21203;-83
2021/06/26 08:02:24;;;;;;;14.77;13.27;;;20.60;99.80;;;;;;5050329;28;20648;-83
2021/06/26 08:04:51;;;;;;;14.87;13.47;;;20.60;98.60;;;;;;5049949;28;20611;-83
2021/06/26 08:07:18;;;;;;;14.40;12.73;;;20.40;99.60;;;;;;5049558;28;21026;-83
2021/06/26 08:09:45;;;;;;;16.43;13.10;;;20.40;99.70;;;;;;5049956;28;20603;-83
2021/06/26 08:12:17;;;;;;;11.23;10.13;;;20.50;99.90;;;;;;5059992;28;20655;-84
2021/06/26 08:14:47;;;;;;;13.57;11.80;;;20.70;98.80;;;;;;5068317;28;20697;-83
2021/06/26 08:17:15;;;;;;;11.33;10.20;;;20.70;97.40;;;;;;5050064;28;20636;-84
2021/06/26 08:19:42;;;;;;;10.80;9.70;;;20.80;97.90;;;;;;5049958;28;21391;-84
2021/06/26 08:22:10;;;;;;;13.77;11.13;;;20.70;98.00;;;;;;5049844;28;20616;-83
2021/06/26 08:24:37;;;;;;;13.90;11.37;;;20.60;98.00;;;;;;5049796;28;21133;-83
2021/06/26 08:27:05;;;;;;;12.37;11.13;;;20.60;98.60;;;;;;5064149;28;20624;-83
2021/06/26 08:29:33;;;;;;;13.27;12.13;;;20.30;99.20;;;;;;5049986;28;20613;-83
2021/06/26 08:32:02;;;;;;;12.60;11.40;;;20.60;99.60;;;;;;5059359;28;20620;-84
2021/06/26 08:34:29;;;;;;;13.00;11.87;;;21.00;98.70;;;;;;5073836;28;20615;-83
2021/06/26 08:36:57;;;;;;;14.53;12.13;;;21.00;98.40;;;;;;5064194;28;20621;-84
2021/06/26 08:39:24;;;;;;;13.63;12.23;;;21.20;98.80;;;;;;5053097;28;20653;-84
2021/06/26 08:41:52;;;;;;;11.80;10.80;;;21.40;98.50;;;;;;5053302;28;20611;-83
2021/06/26 08:44:20;;;;;;;12.73;11.60;;;21.50;97.30;;;;;;5064035;28;20640;-84
2021/06/26 08:46:50;;;;;;;13.07;11.87;;;21.70;97.40;;;;;;5073217;28;20654;-84
2021/06/26 08:49:19;;;;;;;12.10;11.00;;;21.70;97.80;;;;;;5073128;28;20615;-84
2021/06/26 08:51:46;;;;;;;12.07;10.87;;;21.70;97.30;;;;;;5072638;28;20618;-84
2021/06/26 08:54:15;;;;;;;11.50;10.40;;;21.80;97.60;;;;;;5072979;28;21250;-84
2021/06/26 08:56:44;;;;;;;12.60;11.47;;;21.80;97.30;;;;;;5072742;28;20602;-84
2021/06/26 08:59:11;;;;;;;11.07;10.10;;;21.90;96.50;;;;;;5072630;28;20618;-84
2021/06/26 09:01:43;;;;;;;10.27;9.37;;;22.00;97.00;;;;;;5073177;28;21175;-83
2021/06/26 09:04:13;;;;;;;10.90;9.90;;;22.10;94.50;;;;;;5073011;28;21036;-83
2021/06/26 09:06:52;;;;;;;10.53;9.63;;;22.30;94.90;;;;;;5072448;28;20600;-85
2021/06/26 09:09:38;;;;;;;11.83;10.83;;;22.30;94.40;;;;;;5073031;28;20634;-85
2021/06/26 09:12:08;;;;;;;12.63;11.53;;;22.60;93.40;;;;;;5072767;28;20707;-84
2021/06/26 09:14:45;;;;;;;11.27;10.17;;;22.50;95.40;;;;;;5072179;28;20616;-85
2021/06/26 09:17:19;;;;;;;10.83;9.90;;;22.70;93.80;;;;;;5052586;28;20639;-84
2021/06/26 09:19:58;;;;;;;10.97;10.07;;;22.70;92.30;;;;;;5054724;28;20609;-84
2021/06/26 09:22:36;;;;;;;10.53;9.53;;;22.60;91.80;;;;;;5072263;28;20644;-85
2021/06/26 09:25:04;;;;;;;11.27;10.27;;;22.60;91.80;;;;;;5072120;28;20982;-84
2021/06/26 09:27:35;;;;;;;10.87;9.97;;;22.60;92.60;;;;;;5072446;28;20616;-84
2021/06/26 09:30:07;;;;;;;10.20;9.30;;;22.50;92.70;;;;;;5072492;28;21161;-85
2021/06/26 09:32:34;;;;;;;10.80;9.90;;;22.50;92.60;;;;;;5071977;28;21114;-84
2021/06/26 09:35:17;;;;;;;10.20;9.30;;;22.70;92.10;;;;;;5070682;28;20601;-85
2021/06/26 09:37:49;;;;;;;8.57;7.87;;;22.90;91.40;;;;;;5071940;28;21088;-84
2021/06/26 09:40:30;;;;;;;9.03;8.23;;;23.00;91.10;;;;;;5072208;28;20617;-83
2021/06/26 09:42:59;;;;;;;10.07;9.17;;;23.00;90.80;;;;;;5071320;28;20758;-84
2021/06/26 09:45:26;;;;;;;10.10;9.20;;;22.90;92.80;;;;;;5071626;28;20662;-84
2021/06/26 09:47:53;;;;;;;9.87;9.00;;;22.60;91.90;;;;;;5071657;28;20674;-84
2021/06/26 09:50:21;;;;;;;10.00;9.20;;;23.00;93.30;;;;;;5071950;28;20675;-83
2021/06/26 09:52:51;;;;;;;8.93;8.13;;;23.10;91.50;;;;;;5071438;28;20746;-84
2021/06/26 09:55:24;;;;;;;9.87;9.10;;;23.20;90.80;;;;;;5070949;28;20716;-84
2021/06/26 09:57:52;;;;;;;8.57;7.77;;;23.10;90.70;;;;;;5072140;28;20664;-83
2021/06/26 10:00:24;;;;;;;9.13;8.23;;;23.30;90.30;;;;;;5067307;28;20622;-84
2021/06/26 10:02:52;;;;;;;8.60;7.90;;;23.50;90.10;;;;;;5051817;28;20646;-83
2021/06/26 10:05:19;;;;;;;8.37;7.67;;;23.50;89.50;;;;;;5052093;28;20615;-83
2021/06/26 10:07:52;;;;;;;8.30;7.60;;;23.50;89.50;;;;;;5057773;28;20633;-84
2021/06/26 10:10:20;;;;;;;9.50;8.60;;;23.40;90.10;;;;;;5058698;28;20633;-83
2021/06/26 10:12:57;;;;;;;9.87;8.97;;;23.30;91.00;;;;;;5054470;28;20649;-84
2021/06/26 10:15:26;;;;;;;9.23;8.43;;;23.60;90.20;;;;;;5057175;28;20617;-84
2021/06/26 10:17:54;;;;;;;9.03;8.23;;;23.80;88.50;;;;;;5071063;28;20732;-84
2021/06/26 10:20:22;;;;;;;8.83;8.03;;;24.00;90.30;;;;;;5071773;28;20600;-84
2021/06/26 10:22:54;;;;;;;8.07;7.37;;;24.00;87.00;;;;;;5070997;28;21479;-84
2021/06/26 10:25:21;;;;;;;8.40;7.70;;;24.10;87.30;;;;;;5071743;28;20649;-84
2021/06/26 10:27:48;;;;;;;8.57;7.70;;;23.90;88.80;;;;;;5071333;28;20634;-84
2021/06/26 10:30:17;;;;;;;8.87;8.10;;;23.90;89.70;;;;;;5071498;28;20610;-84
2021/06/26 10:32:55;;;;;;;8.97;8.30;;;24.10;88.20;;;;;;5070895;28;20639;-84
2021/06/26 10:35:23;;;;;;;7.90;7.30;;;24.20;88.30;;;;;;5070153;28;20626;-84
2021/06/26 10:38:07;;;;;;;8.67;7.97;;;24.50;85.20;;;;;;5070297;28;20970;-84
2021/06/26 10:40:38;;;;;;;8.27;7.67;;;24.80;87.00;;;;;;5070571;28;20724;-84
2021/06/26 10:43:17;;;;;;;8.33;7.67;;;24.80;82.90;;;;;;5069856;28;20613;-83
2021/06/26 10:45:44;;;;;;;9.23;8.40;;;24.60;82.80;;;;;;5069342;28;20993;-83
2021/06/26 10:48:18;;;;;;;8.23;7.60;;;24.70;82.70;;;;;;5051452;28;21012;-84
2021/06/26 10:50:49;;;;;;;8.37;7.67;;;24.60;83.20;;;;;;5051237;28;20626;-84
2021/06/26 10:53:29;;;;;;;8.60;7.90;;;24.40;86.30;;;;;;5062278;28;21068;-83
2021/06/26 10:56:02;;;;;;;7.60;7.00;;;23.30;82.50;;;;;;5070435;28;20613;-84
2021/06/26 10:58:30;;;;;;;9.73;8.00;;;23.40;87.40;;;;;;5070878;28;20609;-84
2021/06/26 11:00:57;;;;;;;9.43;8.63;;;23.80;87.00;;;;;;5070937;28;20690;-83
2021/06/26 11:03:30;;;;;;;7.80;7.20;;;24.40;85.50;;;;;;5070769;28;20653;-83
2021/06/26 11:05:58;;;;;;;8.30;7.70;;;25.00;84.50;;;;;;5070340;28;21182;-84
2021/06/26 11:08:26;;;;;;;8.10;7.50;;;25.50;81.20;;;;;;5070275;28;21301;-84
2021/06/26 11:10:56;;;;;;;7.03;6.40;;;25.40;79.20;;;;;;5070807;28;20715;-84
2021/06/26 11:13:24;;;;;;;6.97;6.47;;;25.10;79.40;;;;;;5070411;28;20660;-83
2021/06/26 11:15:52;;;;;;;7.67;7.07;;;25.00;79.40;;;;;;5070447;28;20606;-84
2021/06/26 11:18:19;;;;;;;6.60;6.10;;;25.10;81.70;;;;;;5070270;28;20623;-83
2021/06/26 11:20:47;;;;;;;7.70;7.10;;;25.30;82.10;;;;;;5059795;28;20941;-84
2021/06/26 11:23:16;;;;;;;6.93;6.43;;;25.30;83.20;;;;;;5061272;28;20717;-83
2021/06/26 11:25:44;;;;;;;6.93;6.43;;;26.00;81.80;;;;;;5070606;28;21031;-85
2021/06/26 11:28:14;;;;;;;6.30;5.80;;;26.60;75.40;;;;;;5070361;28;20614;-85
2021/06/26 11:30:45;;;;;;;7.90;7.20;;;27.20;74.40;;;;;;5070678;28;20617;-85
2021/06/26 11:33:12;;;;;;;7.17;6.57;;;27.40;71.90;;;;;;5070286;28;20657;-84
2021/06/26 11:35:41;;;;;;;7.53;6.93;;;27.20;70.70;;;;;;5069220;28;20967;-84
2021/06/26 11:38:15;;;;;;;8.03;7.23;;;27.00;73.60;;;;;;5069280;28;21148;-84
2021/06/26 11:40:42;;;;;;;7.53;6.93;;;27.00;72.50;;;;;;5070378;28;20651;-84
2021/06/26 11:43:10;;;;;;;6.87;6.37;;;27.20;71.60;;;;;;5070087;28;20672;-83
2021/06/26 11:45:41;;;;;;;6.43;6.00;;;27.70;71.00;;;;;;5070196;28;20637;-84
2021/06/26 11:48:10;;;;;;;7.33;6.63;;;28.10;65.50;;;;;;5069800;28;20633;-85
2021/06/26 11:50:38;;;;;;;7.07;6.47;;;28.30;66.20;;;;;;5070190;28;20688;-84
2021/06/26 11:53:07;;;;;;;9.60;7.20;;;28.80;66.00;;;;;;5069818;28;20610;-83
2021/06/26 11:55:49;;;;;;;8.20;6.87;;;29.10;65.90;;;;;;5069950;28;20618;-83
2021/06/26 11:58:18;;;;;;;6.97;6.37;;;29.40;65.60;;;;;;5069937;28;21031;-84
2021/06/26 12:00:49;;;;;;;7.20;6.70;;;29.10;62.40;;;;;;5069962;28;20706;-83
2021/06/26 12:03:16;;;;;;;7.80;7.20;;;28.70;62.00;;;;;;5070188;28;20614;-82
2021/06/26 12:05:43;;;;;;;6.77;6.30;;;28.90;64.40;;;;;;5072828;28;20675;-83
2021/06/26 12:08:10;;;;;;;7.27;6.77;;;29.30;63.10;;;;;;5074200;28;20625;-84
2021/06/26 12:10:38;;;;;;;5.37;4.97;;;29.70;61.50;;;;;;5074106;28;20612;-84
2021/06/26 12:13:05;;;;;;;6.77;6.37;;;30.60;59.30;;;;;;5073432;28;21036;-83
2021/06/26 12:15:32;;;;;;;7.70;7.17;;;31.10;57.30;;;;;;5074248;28;20617;-83
2021/06/26 12:18:05;;;;;;;7.03;6.53;;;31.20;56.50;;;;;;5073994;28;20621;-85
2021/06/26 12:20:36;;;;;;;6.53;6.13;;;31.00;57.20;;;;;;5073405;28;20663;-84
2021/06/26 12:23:08;;;;;;;5.90;5.50;;;31.50;55.30;;;;;;5073693;28;20724;-84
2021/06/26 12:25:37;;;;;;;7.40;6.20;;;32.20;55.20;;;;;;5073305;28;20623;-84
2021/06/26 12:28:08;;;;;;;5.63;5.23;;;32.90;54.00;;;;;;5072280;28;20661;-85
2021/06/26 12:30:36;;;;;;;5.10;4.80;;;33.50;52.50;;;;;;5072461;28;20624;-85
2021/06/26 12:33:08;;;;;;;6.30;5.70;;;33.90;52.10;;;;;;5072063;28;20659;-85
2021/06/26 12:35:36;;;;;;;6.27;5.77;;;34.00;51.00;;;;;;5073287;28;21052;-86
2021/06/26 12:38:04;;;;;;;5.50;5.20;;;33.60;51.70;;;;;;5073164;28;21149;-83